createdAt,value
2019-01-21T00:00:34.624Z,94.08
2019-01-21T00:05:38.650Z,94.27
2019-01-21T00:10:42.670Z,94.58
2019-01-21T00:15:55.929Z,94.11
2019-01-21T00:20:59.959Z,94.08
2019-01-21T00:26:04.112Z,93.00
2019-01-21T00:31:08.180Z,92.15
2019-01-21T00:36:12.537Z,93.01
2019-01-21T00:41:16.585Z,93.37
2019-01-21T00:46:20.642Z,93.27
2019-01-21T00:51:24.859Z,93.39
2019-01-21T00:56:28.915Z,93.40
2019-01-21T01:01:33.010Z,93.00
2019-01-21T01:06:37.617Z,93.16
2019-01-21T01:11:41.680Z,93.07
2019-01-21T01:16:45.827Z,92.98
2019-01-21T01:21:49.855Z,92.33
2019-01-21T01:26:53.932Z,92.24
2019-01-21T01:31:58.447Z,91.87
2019-01-21T01:37:02.435Z,92.82
2019-01-21T01:42:06.517Z,93.74
2019-01-21T01:47:10.994Z,93.82
2019-01-21T01:52:15.070Z,93.45
2019-01-21T01:57:19.172Z,93.36
2019-01-21T02:02:23.308Z,92.61
2019-01-21T02:07:29.320Z,93.17
2019-01-21T02:12:34.349Z,93.17
2019-01-21T02:17:40.333Z,93.57
2019-01-21T02:22:46.326Z,93.62
2019-01-21T02:28:37.643Z,93.78
2019-01-21T02:34:12.230Z,93.73
2019-01-21T02:40:14.699Z,94.48
2019-01-21T02:45:33.759Z,94.69
2019-01-21T02:51:10.932Z,95.02
2019-01-21T02:56:59.439Z,95.61
2019-01-21T03:02:40.106Z,95.99
2019-01-21T03:07:55.974Z,95.37
2019-01-21T03:13:39.541Z,94.22
2019-01-21T03:19:42.545Z,94.95
2019-01-21T03:25:21.911Z,94.77
2019-01-21T03:30:53.613Z,94.56
2019-01-21T03:36:25.498Z,94.56
2019-01-21T03:41:39.643Z,94.49
2019-01-21T03:47:24.880Z,94.29
2019-01-21T03:52:46.099Z,94.09
2019-01-21T03:58:20.154Z,94.16
2019-01-21T04:03:51.504Z,94.39
2019-01-21T04:09:21.674Z,94.44
2019-01-21T04:15:20.356Z,94.72
2019-01-21T04:21:03.965Z,95.17
2019-01-21T04:26:35.120Z,94.69
2019-01-21T04:32:13.483Z,94.38
2019-01-21T04:37:57.916Z,94.11
2019-01-21T04:43:36.849Z,93.67
2019-01-21T04:49:11.856Z,93.65
2019-01-21T04:55:02.590Z,93.77
2019-01-21T05:00:42.133Z,94.41
2019-01-21T05:06:19.172Z,94.14
2019-01-21T05:12:16.081Z,94.75
2019-01-21T05:17:45.530Z,94.63
2019-01-21T05:23:23.320Z,95.41
2019-01-21T05:29:05.705Z,95.88
2019-01-21T05:34:37.177Z,95.98
2019-01-21T05:39:59.307Z,95.53
2019-01-21T05:45:38.185Z,95.49
2019-01-21T05:51:38.946Z,96.21
2019-01-21T05:57:24.265Z,96.71
2019-01-21T06:02:57.884Z,97.33
2019-01-21T06:08:55.516Z,97.76
2019-01-21T06:14:43.218Z,97.95
2019-01-21T06:20:15.815Z,97.62
2019-01-21T06:25:40.121Z,97.50
2019-01-21T06:31:07.410Z,97.48
2019-01-21T06:36:51.687Z,97.43
2019-01-21T06:42:32.345Z,98.35
2019-01-21T06:48:29.701Z,98.43
2019-01-21T06:54:00.396Z,98.23
2019-01-21T06:59:34.336Z,98.63
2019-01-21T07:05:17.296Z,98.40
2019-01-21T07:11:08.386Z,97.49
2019-01-21T07:16:43.290Z,97.53
2019-01-21T07:22:12.131Z,97.96
2019-01-21T07:27:44.560Z,98.11
2019-01-21T07:33:27.497Z,98.68
2019-01-21T07:39:06.111Z,99.25
2019-01-21T07:44:35.583Z,98.67
2019-01-21T07:50:08.490Z,98.61
2019-01-21T07:55:41.949Z,98.84
2019-01-21T08:01:04.338Z,96.99
2019-01-21T08:06:18.171Z,95.56
2019-01-21T08:12:15.468Z,95.67
2019-01-21T08:18:03.453Z,96.50
2019-01-21T08:23:40.527Z,97.22
2019-01-21T08:29:11.320Z,97.19
2019-01-21T08:34:52.054Z,96.27
2019-01-21T08:40:17.727Z,94.96
2019-01-21T08:46:05.989Z,96.25
2019-01-21T08:52:00.021Z,95.03
2019-01-21T08:57:50.570Z,93.87
2019-01-21T09:03:44.540Z,93.87
2019-01-21T09:09:22.464Z,93.22
2019-01-21T09:15:01.031Z,92.09
2019-01-21T09:20:46.257Z,91.82
2019-01-21T09:26:21.290Z,91.21
2019-01-21T09:31:50.436Z,91.30
2019-01-21T09:37:18.292Z,91.78
2019-01-21T09:43:02.607Z,91.76
2019-01-21T09:48:04.934Z,91.21
2019-01-21T09:53:09.099Z,89.49
2019-01-21T09:58:13.196Z,89.07
2019-01-21T10:03:17.529Z,88.96
2019-01-21T10:08:43.243Z,86.49
2019-01-21T10:14:12.181Z,87.33
2019-01-21T10:19:52.811Z,86.70
2019-01-21T10:25:41.232Z,86.61
2019-01-21T10:31:03.248Z,86.17
2019-01-21T10:36:28.938Z,83.50
2019-01-21T10:42:11.873Z,82.34
2019-01-21T10:47:40.105Z,85.33
2019-01-21T10:53:16.616Z,85.99
2019-01-21T10:58:40.473Z,86.75
2019-01-21T11:04:17.066Z,84.53
2019-01-21T11:10:01.781Z,84.95
2019-01-21T11:15:27.402Z,84.63
2019-01-21T11:21:12.631Z,84.23
2019-01-21T11:26:57.011Z,84.45
2019-01-21T11:33:09.458Z,85.27
2019-01-21T11:38:50.249Z,81.61
2019-01-21T11:44:30.818Z,82.88
2019-01-21T11:50:11.704Z,85.09
2019-01-21T11:56:04.673Z,82.68
2019-01-21T12:01:39.374Z,80.85
2019-01-21T12:06:56.881Z,82.88
2019-01-21T12:12:29.157Z,78.07
2019-01-21T12:18:12.681Z,76.08
2019-01-21T12:23:57.950Z,78.04
2019-01-21T12:29:18.022Z,77.92
2019-01-21T12:34:48.567Z,79.79
2019-01-21T12:40:27.260Z,80.72
2019-01-21T12:46:14.992Z,79.76
2019-01-21T12:51:56.575Z,78.95
2019-01-21T12:57:41.838Z,78.54
2019-01-21T13:03:44.588Z,78.68
2019-01-21T13:09:25.992Z,80.12
2019-01-21T13:14:57.641Z,80.08
2019-01-21T13:20:41.229Z,79.79
2019-01-21T13:26:39.067Z,79.84
2019-01-21T13:32:17.223Z,79.39
2019-01-21T13:38:14.276Z,81.40
2019-01-21T13:43:52.932Z,79.70
2019-01-21T13:49:25.040Z,80.79
2019-01-21T13:55:11.673Z,78.67
2019-01-21T14:00:50.187Z,78.20
2019-01-21T14:06:27.379Z,78.84
2019-01-21T14:11:55.883Z,80.56
2019-01-21T14:17:34.115Z,80.80
2019-01-21T14:23:02.517Z,82.37
2019-01-21T14:28:47.672Z,83.56
2019-01-21T14:34:05.187Z,85.75
2019-01-21T14:39:38.986Z,86.24
2019-01-21T14:45:19.998Z,87.58
2019-01-21T14:51:06.455Z,88.96
2019-01-21T14:56:25.343Z,89.62
2019-01-21T15:01:52.226Z,90.53
2019-01-21T15:07:07.273Z,90.70
2019-01-21T15:12:45.025Z,91.40
2019-01-21T15:18:13.823Z,92.59
2019-01-21T15:24:03.770Z,93.16
2019-01-21T15:29:42.034Z,93.54
2019-01-21T15:35:30.502Z,94.39
2019-01-21T15:41:09.988Z,95.03
2019-01-21T15:46:46.634Z,96.10
2019-01-21T15:51:58.744Z,96.88
2019-01-21T15:57:59.369Z,97.95
2019-01-21T16:03:23.033Z,98.55
2019-01-21T16:09:06.824Z,99.47
2019-01-21T16:14:20.499Z,99.20
2019-01-21T16:20:00.979Z,99.29
2019-01-21T16:25:39.794Z,99.75
2019-01-21T16:31:07.689Z,100.00
2019-01-21T16:36:23.115Z,100.00
2019-01-21T16:41:50.781Z,100.00
2019-01-21T16:46:56.244Z,100.00
2019-01-21T16:52:00.801Z,100.00
2019-01-21T16:57:05.086Z,100.00
2019-01-21T17:02:09.265Z,100.00
2019-01-21T17:07:13.687Z,100.00
2019-01-21T17:12:17.807Z,100.00
2019-01-21T17:17:23.284Z,100.00
2019-01-21T17:22:41.671Z,100.00
2019-01-21T17:27:45.715Z,100.00
2019-01-21T17:32:49.816Z,100.00
2019-01-21T17:37:53.854Z,100.00
2019-01-21T17:42:57.857Z,100.00
2019-01-21T17:48:02.828Z,100.00
2019-01-21T17:53:06.968Z,100.00
2019-01-21T17:58:11.317Z,100.00
2019-01-21T18:03:15.353Z,100.00
2019-01-21T18:08:19.698Z,100.00
2019-01-21T18:13:27.090Z,100.00
2019-01-21T18:18:31.787Z,100.00
2019-01-21T18:23:36.182Z,100.00
2019-01-21T18:28:40.190Z,100.00
2019-01-21T18:33:44.305Z,100.00
2019-01-21T18:38:48.400Z,100.00
2019-01-21T18:43:54.274Z,100.00
2019-01-21T18:48:58.341Z,100.00
2019-01-21T18:54:02.476Z,100.00
2019-01-21T18:59:06.499Z,100.00
2019-01-21T19:04:10.752Z,100.00
2019-01-21T19:09:14.939Z,100.00
2019-01-21T19:14:19.176Z,100.00
2019-01-21T19:19:25.209Z,100.00
2019-01-21T19:24:29.740Z,100.00
2019-01-21T19:29:33.821Z,100.00
2019-01-21T19:34:38.138Z,100.00
2019-01-21T19:39:43.148Z,100.00
2019-01-21T19:44:47.536Z,100.00
2019-01-21T19:49:56.534Z,100.00
2019-01-21T19:55:03.822Z,100.00
2019-01-21T20:00:14.390Z,100.00
2019-01-21T20:05:24.908Z,100.00
2019-01-21T20:10:33.809Z,100.00
2019-01-21T20:15:42.957Z,100.00
2019-01-21T20:20:50.682Z,100.00
2019-01-21T20:25:58.243Z,100.00
2019-01-21T20:31:05.749Z,100.00
2019-01-21T20:36:14.266Z,100.00
2019-01-21T20:41:22.052Z,100.00
2019-01-21T20:46:26.231Z,100.00
2019-01-21T20:51:32.664Z,100.00
2019-01-21T20:56:37.619Z,100.00
2019-01-21T21:01:42.734Z,100.00
2019-01-21T21:06:46.755Z,100.00
2019-01-21T21:11:52.045Z,100.00
2019-01-21T21:16:56.271Z,100.00
2019-01-21T21:22:00.620Z,100.00
2019-01-21T21:27:05.348Z,100.00
2019-01-21T21:32:09.379Z,100.00
2019-01-21T21:37:13.833Z,99.79
2019-01-21T21:42:17.934Z,99.49
2019-01-21T21:47:21.964Z,98.34
2019-01-21T21:52:27.905Z,97.93
2019-01-21T21:57:32.099Z,97.72
2019-01-21T22:02:36.188Z,96.78
2019-01-21T22:07:40.288Z,97.39
2019-01-21T22:12:45.421Z,97.04
2019-01-21T22:17:49.496Z,97.19
2019-01-21T22:22:53.582Z,97.33
2019-01-21T22:27:57.703Z,97.53
2019-01-21T22:33:01.780Z,98.08
2019-01-21T22:38:06.183Z,99.07
2019-01-21T22:43:10.271Z,99.42
2019-01-21T22:48:14.637Z,100.00
2019-01-21T22:53:18.685Z,100.00
2019-01-21T22:58:22.726Z,100.00
2019-01-21T23:03:27.927Z,100.00
2019-01-21T23:08:32.166Z,100.00
2019-01-21T23:13:36.224Z,100.00
2019-01-21T23:18:40.321Z,100.00
2019-01-21T23:23:44.460Z,100.00
2019-01-21T23:28:48.553Z,100.00
2019-01-21T23:33:52.609Z,100.00
2019-01-21T23:38:56.697Z,100.00
2019-01-21T23:44:00.780Z,100.00
2019-01-21T23:49:04.857Z,100.00
2019-01-21T23:54:10.187Z,100.00
2019-01-21T23:59:14.304Z,100.00
